Time;durP1;ratioP1;P1;durP2;ratioP2;P2;SDS_P1;SDS_P2;PMS_P1;PMS_P2;Temp;Humidity;BMP_temperature;BMP_pressure;BME280_temperature;BME280_humidity;BME280_pressure;Samples;Min_cycle;Max_cycle;Signal;HPM_P1;HPM_P2
2022/12/09 00:01:44;;;;;;;4.63;4.00;;;16.70;54.40;17.90;99875.00;;;;5049154;28;20200;-44
2022/12/09 00:04:10;;;;;;;4.40;4.00;;;16.70;54.30;17.80;99868.00;;;;5048830;28;20176;-44
2022/12/09 00:06:36;;;;;;;5.00;3.80;;;16.70;54.30;17.80;99863.00;;;;5048939;28;20171;-44
2022/12/09 00:09:01;;;;;;;5.30;4.10;;;16.70;54.40;17.80;99849.00;;;;5048548;28;20189;-44
2022/12/09 00:11:27;;;;;;;4.33;3.93;;;16.60;54.30;17.80;99858.00;;;;5030381;28;20534;-42
2022/12/09 00:13:55;;;;;;;4.80;3.70;;;16.60;54.30;17.80;99846.00;;;;5048687;28;20179;-44
2022/12/09 00:16:21;;;;;;;4.20;3.80;;;16.60;54.40;17.70;99862.00;;;;5048920;28;20306;-43
2022/12/09 00:18:47;;;;;;;4.73;3.80;;;16.60;54.50;17.70;99845.00;;;;5030941;28;20198;-44
2022/12/09 00:21:27;;;;;;;5.17;4.10;;;16.60;54.50;17.70;99844.00;;;;5030847;28;20213;-43
2022/12/09 00:23:54;;;;;;;4.30;3.90;;;16.60;54.60;17.70;99847.00;;;;5049436;28;20248;-42
2022/12/09 00:26:21;;;;;;;4.00;3.60;;;16.50;54.50;17.60;99855.00;;;;5014696;28;20204;-43
2022/12/09 00:28:48;;;;;;;4.40;4.00;;;16.50;54.60;17.60;99848.00;;;;5030902;28;20555;-43
2022/12/09 00:31:16;;;;;;;4.20;3.80;;;16.50;55.20;17.60;99856.00;;;;5048680;28;20222;-43
2022/12/09 00:33:43;;;;;;;4.40;3.90;;;16.50;54.60;17.60;99852.00;;;;5030903;28;20175;-43
2022/12/09 00:36:11;;;;;;;3.97;3.57;;;16.50;54.60;17.60;99847.00;;;;5048593;28;20184;-44
2022/12/09 00:38:37;;;;;;;4.27;3.70;;;16.40;54.60;17.60;99857.00;;;;5048738;28;20648;-44
2022/12/09 00:41:03;;;;;;;4.50;3.70;;;16.40;54.60;17.50;99858.00;;;;5048540;28;20314;-44
2022/12/09 00:43:29;;;;;;;3.80;3.50;;;16.40;54.70;17.50;99860.00;;;;5049045;28;20229;-44
2022/12/09 00:45:54;;;;;;;4.30;3.70;;;16.40;54.80;17.50;99849.00;;;;5049854;28;20184;-43
2022/12/09 00:48:20;;;;;;;5.53;3.90;;;16.40;54.80;17.50;99844.00;;;;5049215;28;20237;-44
2022/12/09 00:50:46;;;;;;;4.00;3.60;;;16.40;54.80;17.50;99833.00;;;;5048936;28;20211;-44
2022/12/09 00:53:12;;;;;;;4.60;3.73;;;16.30;54.80;17.40;99847.00;;;;5048485;28;20179;-43
2022/12/09 00:55:38;;;;;;;4.63;3.90;;;16.30;54.80;17.40;99844.00;;;;5048272;28;20244;-44
2022/12/09 00:58:03;;;;;;;4.33;3.83;;;16.30;54.80;17.40;99846.00;;;;5048512;28;20202;-44
2022/12/09 01:00:29;;;;;;;4.40;4.00;;;16.30;54.80;17.40;99850.00;;;;5052094;28;20247;-44
2022/12/09 01:02:55;;;;;;;4.87;3.90;;;16.30;54.80;17.30;99850.00;;;;5056095;28;20205;-43
2022/12/09 01:05:21;;;;;;;4.47;4.07;;;16.20;54.80;17.30;99858.00;;;;5057110;28;20166;-44
2022/12/09 01:07:46;;;;;;;4.53;4.13;;;16.20;54.70;17.30;99856.00;;;;5052429;28;20270;-44
2022/12/09 01:10:12;;;;;;;4.80;3.87;;;16.20;54.80;17.30;99850.00;;;;5048342;28;20202;-44
2022/12/09 01:12:38;;;;;;;4.20;3.80;;;16.20;54.80;17.30;99843.00;;;;5030334;28;20179;-44
2022/12/09 01:15:05;;;;;;;4.60;4.20;;;16.20;54.90;17.30;99848.00;;;;5048313;28;20183;-44
2022/12/09 01:17:31;;;;;;;4.00;3.60;;;16.20;54.90;17.20;99857.00;;;;5030520;28;20204;-43
2022/12/09 01:19:56;;;;;;;4.20;3.83;;;16.10;54.80;17.20;99849.00;;;;5048338;28;20166;-44
2022/12/09 01:22:22;;;;;;;4.17;3.77;;;16.10;54.80;17.20;99850.00;;;;5033628;28;20173;-44
2022/12/09 01:24:48;;;;;;;3.83;3.53;;;16.10;54.90;17.20;99860.00;;;;5052341;28;20201;-44
2022/12/09 01:27:14;;;;;;;4.00;3.60;;;16.10;55.00;17.20;99843.00;;;;5052249;28;20170;-44
2022/12/09 01:29:39;;;;;;;3.60;3.30;;;16.00;54.90;17.20;99851.00;;;;5052113;28;20174;-44
2022/12/09 01:32:05;;;;;;;4.37;3.70;;;16.10;55.10;17.10;99860.00;;;;5051627;28;20536;-44
2022/12/09 01:34:31;;;;;;;4.73;3.63;;;16.00;55.00;17.10;99849.00;;;;5052180;28;20198;-43
2022/12/09 01:36:56;;;;;;;4.03;3.60;;;16.00;55.00;17.10;99851.00;;;;5052078;28;20174;-44
2022/12/09 01:39:22;;;;;;;4.40;4.00;;;16.00;55.10;17.10;99864.00;;;;5034103;28;20194;-43
2022/12/09 01:41:50;;;;;;;4.20;3.80;;;16.00;55.00;17.10;99866.00;;;;5034059;28;20218;-44
2022/12/09 01:44:23;;;;;;;4.27;3.87;;;15.90;54.90;17.10;99859.00;;;;5051745;28;20162;-42
2022/12/09 01:46:53;;;;;;;4.43;4.03;;;15.90;54.90;17.00;99864.00;;;;5017634;28;20178;-43
2022/12/09 01:49:24;;;;;;;4.50;4.07;;;15.90;54.90;17.00;99860.00;;;;5051457;28;20648;-44
2022/12/09 01:52:17;;;;;;;4.10;3.70;;;15.90;55.00;17.00;99862.00;;;;5051312;28;20165;-44
2022/12/09 01:54:44;;;;;;;3.80;3.50;;;15.90;55.10;17.00;99869.00;;;;5035290;28;20534;-43
2022/12/09 01:57:10;;;;;;;3.90;3.50;;;15.90;55.10;17.00;99863.00;;;;5034659;28;20658;-42
2022/12/09 01:59:36;;;;;;;4.10;3.67;;;15.80;55.10;17.00;99866.00;;;;5053073;28;20196;-43
2022/12/09 02:02:02;;;;;;;3.87;3.53;;;15.80;55.10;16.90;99847.00;;;;5055314;28;20900;-43
2022/12/09 02:04:28;;;;;;;4.63;3.40;;;15.80;55.20;16.90;99853.00;;;;5021792;28;20167;-42
2022/12/09 02:06:56;;;;;;;4.47;3.60;;;15.80;55.20;16.90;99850.00;;;;5021129;28;20261;-44
2022/12/09 02:09:22;;;;;;;3.47;3.17;;;15.80;55.20;16.90;99852.00;;;;5033660;28;20234;-44
2022/12/09 02:12:01;;;;;;;3.70;3.40;;;15.80;55.30;16.90;99843.00;;;;5048328;28;20182;-43
2022/12/09 02:14:52;;;;;;;4.10;3.70;;;15.70;55.20;16.90;99843.00;;;;5054759;28;20177;-44
2022/12/09 02:17:42;;;;;;;3.80;3.50;;;15.70;55.30;16.80;99849.00;;;;5055871;28;20593;-44
2022/12/09 02:20:39;;;;;;;4.43;3.90;;;15.70;55.30;16.80;99840.00;;;;5056132;28;20190;-44
2022/12/09 02:23:23;;;;;;;4.63;3.70;;;15.70;55.30;16.80;99833.00;;;;5053003;28;20521;-42
2022/12/09 02:26:08;;;;;;;3.80;3.50;;;15.70;55.30;16.80;99823.00;;;;5055026;28;20215;-42
2022/12/09 02:28:49;;;;;;;3.50;3.20;;;15.60;55.20;16.80;99840.00;;;;5038942;28;20189;-43
2022/12/09 02:31:50;;;;;;;3.73;3.43;;;15.60;55.30;16.80;99835.00;;;;5070850;28;20165;-44
2022/12/09 02:34:22;;;;;;;4.03;3.67;;;15.70;55.30;16.70;99830.00;;;;5056753;28;20169;-43
2022/12/09 02:37:11;;;;;;;3.63;3.33;;;15.60;55.30;16.70;99828.00;;;;5053296;28;20165;-44
2022/12/09 02:39:51;;;;;;;3.90;3.47;;;15.60;55.30;16.70;99811.00;;;;5070540;28;20186;-42
2022/12/09 02:42:19;;;;;;;3.90;3.60;;;15.60;55.60;16.70;99806.00;;;;5053033;28;20645;-43
2022/12/09 02:44:46;;;;;;;3.70;3.40;;;15.60;55.50;16.70;99834.00;;;;5052920;28;20175;-43
2022/12/09 02:47:14;;;;;;;4.30;3.47;;;15.50;55.50;16.70;99825.00;;;;5052618;28;20168;-44
2022/12/09 02:49:40;;;;;;;4.10;3.37;;;15.50;55.50;16.70;99828.00;;;;5052737;28;20169;-44
2022/12/09 02:52:06;;;;;;;3.93;3.40;;;15.50;55.50;16.70;99745.00;;;;5052234;28;20166;-44
2022/12/09 02:54:32;;;;;;;4.00;3.53;;;15.50;55.50;16.60;99821.00;;;;5052770;28;20181;-43
2022/12/09 02:57:01;;;;;;;3.93;3.53;;;15.50;55.50;16.60;99822.00;;;;5052689;28;20176;-42
2022/12/09 02:59:27;;;;;;;3.60;3.30;;;15.50;55.50;16.60;99820.00;;;;5052437;28;20193;-43
2022/12/09 03:02:26;;;;;;;3.60;3.30;;;15.40;55.50;16.60;99739.00;;;;5070921;28;20204;-42
2022/12/09 03:05:24;;;;;;;3.77;3.47;;;15.40;55.50;16.60;99812.00;;;;5053214;28;20170;-43
2022/12/09 03:08:11;;;;;;;3.63;3.33;;;15.40;55.50;16.50;99805.00;;;;5070356;28;20239;-43
2022/12/09 03:11:10;;;;;;;3.87;3.57;;;15.40;55.50;16.50;99812.00;;;;5070907;28;20185;-42
2022/12/09 03:14:07;;;;;;;3.80;3.40;;;15.40;55.50;16.50;99809.00;;;;5052672;28;20168;-43
2022/12/09 03:16:40;;;;;;;3.57;3.27;;;15.40;55.50;16.50;99810.00;;;;5052471;28;20193;-43
2022/12/09 03:19:30;;;;;;;3.80;3.50;;;15.30;55.50;16.50;99812.00;;;;5052390;28;20240;-43
2022/12/09 03:21:58;;;;;;;3.10;2.90;;;15.30;55.60;16.50;99795.00;;;;5051890;28;20192;-43
2022/12/09 03:24:28;;;;;;;3.77;3.30;;;15.30;55.60;16.50;99810.00;;;;5051962;28;20166;-44
2022/12/09 03:26:54;;;;;;;3.80;3.50;;;15.30;55.60;16.50;99802.00;;;;5052276;28;20150;-43
2022/12/09 03:29:23;;;;;;;4.00;3.60;;;15.30;55.70;16.40;99795.00;;;;5052156;28;20197;-44
2022/12/09 03:31:50;;;;;;;3.80;3.50;;;15.20;55.60;16.40;99796.00;;;;5048446;28;20610;-42
2022/12/09 03:34:23;;;;;;;3.20;3.00;;;15.20;55.50;16.40;99794.00;;;;5032418;28;20173;-45
2022/12/09 03:36:49;;;;;;;6.17;3.53;;;15.20;55.80;16.40;99794.00;;;;5049172;28;20181;-43
2022/12/09 03:39:17;;;;;;;6.60;3.60;;;15.20;55.80;16.40;99788.00;;;;5052273;28;20288;-43
2022/12/09 03:42:21;;;;;;;5.00;3.70;;;15.30;55.80;16.40;99782.00;;;;5051987;28;20190;-43
2022/12/09 03:45:02;;;;;;;4.50;3.40;;;15.20;55.70;16.40;99792.00;;;;5034847;28;20691;-43
2022/12/09 03:47:28;;;;;;;4.57;3.50;;;15.20;55.70;16.30;99778.00;;;;5052232;28;20162;-44
2022/12/09 03:49:54;;;;;;;3.70;3.33;;;15.20;56.30;16.10;99782.00;;;;5052210;28;20704;-43
2022/12/09 03:52:25;;;;;;;5.17;3.57;;;15.20;55.80;16.30;99780.00;;;;5051181;28;20184;-42
2022/12/09 03:55:02;;;;;;;4.27;3.50;;;15.20;56.20;16.30;99771.00;;;;5051491;28;20159;-44
2022/12/09 03:57:27;;;;;;;5.10;3.60;;;15.20;56.10;16.30;99782.00;;;;5052085;28;20169;-43
2022/12/09 03:59:57;;;;;;;5.10;3.60;;;15.20;56.10;16.30;99782.00;;;;5051682;28;20161;-42
2022/12/09 04:02:23;;;;;;;4.10;3.70;;;15.10;56.10;16.30;99788.00;;;;5051809;28;20211;-43
2022/12/09 04:04:48;;;;;;;4.80;3.60;;;15.10;55.90;16.30;99771.00;;;;5051948;28;20253;-43
2022/12/09 04:07:14;;;;;;;4.00;3.60;;;15.10;56.10;16.30;99779.00;;;;5052027;28;20281;-45
2022/12/09 04:09:40;;;;;;;4.00;3.50;;;15.10;56.00;16.30;99777.00;;;;5069393;28;20315;-42
2022/12/09 04:12:06;;;;;;;3.90;3.50;;;15.10;56.00;16.20;99790.00;;;;5069176;28;20201;-44
2022/12/09 04:14:32;;;;;;;3.80;3.50;;;15.10;56.00;16.20;99782.00;;;;5069661;28;20735;-43
2022/12/09 04:16:57;;;;;;;3.70;3.40;;;15.00;56.00;16.20;99794.00;;;;5069413;28;20243;-43
2022/12/09 04:19:23;;;;;;;3.43;3.13;;;15.00;55.90;16.20;99771.00;;;;5069305;28;20209;-42
2022/12/09 04:21:49;;;;;;;3.67;3.37;;;15.00;55.90;16.20;99772.00;;;;5069192;28;20285;-43
2022/12/09 04:24:15;;;;;;;4.40;3.10;;;15.00;55.90;16.20;99771.00;;;;5069552;28;20173;-43
2022/12/09 04:26:40;;;;;;;3.90;3.50;;;15.00;55.90;16.20;99774.00;;;;5069754;28;20169;-44
2022/12/09 04:29:06;;;;;;;3.50;3.20;;;14.90;55.80;16.10;99769.00;;;;5069985;28;20552;-43
2022/12/09 04:31:32;;;;;;;3.53;3.23;;;14.90;55.80;16.10;99768.00;;;;5069903;28;20215;-43
2022/12/09 04:33:59;;;;;;;3.63;3.33;;;14.90;55.80;16.10;99771.00;;;;5069945;28;20178;-44
2022/12/09 04:36:25;;;;;;;4.20;3.80;;;14.90;55.80;16.10;99769.00;;;;5052020;28;20177;-44
2022/12/09 04:38:50;;;;;;;6.77;3.97;;;14.90;55.70;16.10;99765.00;;;;5068964;28;20193;-43
2022/12/09 04:41:16;;;;;;;4.20;3.30;;;14.90;56.40;16.00;99764.00;;;;5069187;28;20273;-43
2022/12/09 04:43:42;;;;;;;4.00;3.60;;;14.90;56.00;16.00;99769.00;;;;5069933;28;20162;-42
2022/12/09 04:46:11;;;;;;;5.20;3.70;;;14.90;55.90;16.00;99761.00;;;;5069759;28;20166;-43
2022/12/09 04:48:37;;;;;;;5.40;3.50;;;14.80;55.80;16.00;99754.00;;;;5052052;28;20198;-43
2022/12/09 04:51:03;;;;;;;4.10;3.60;;;14.80;55.80;16.00;99762.00;;;;5052043;28;20178;-42
2022/12/09 04:53:28;;;;;;;3.90;3.50;;;14.90;55.90;16.00;99767.00;;;;5069700;28;20265;-43
2022/12/09 04:55:59;;;;;;;4.40;3.97;;;14.90;56.20;16.00;99757.00;;;;5070786;28;20173;-43
2022/12/09 04:58:25;;;;;;;4.17;3.40;;;14.80;55.90;16.00;99762.00;;;;5056322;28;20190;-42
2022/12/09 05:00:51;;;;;;;5.70;4.07;;;14.80;55.90;15.90;99757.00;;;;5073953;28;20197;-42
2022/12/09 05:03:17;;;;;;;5.10;3.53;;;14.80;55.80;16.00;99764.00;;;;5073762;28;20165;-43
2022/12/09 05:05:42;;;;;;;5.80;3.80;;;14.70;55.70;16.00;99748.00;;;;5055851;28;20165;-42
2022/12/09 05:08:08;;;;;;;6.63;3.40;;;14.70;55.80;16.00;99755.00;;;;5073500;28;20554;-42
2022/12/09 05:10:34;;;;;;;4.73;3.70;;;14.80;56.00;15.90;99762.00;;;;5073990;28;20258;-42
2022/12/09 05:12:59;;;;;;;5.23;3.50;;;14.80;56.00;15.90;99764.00;;;;5073867;28;20228;-42
2022/12/09 05:15:25;;;;;;;5.63;3.80;;;14.70;55.90;15.90;99756.00;;;;5074270;28;20251;-43
2022/12/09 05:17:51;;;;;;;6.50;3.70;;;14.70;55.90;15.90;99767.00;;;;5070913;28;20579;-43
2022/12/09 05:20:17;;;;;;;4.70;3.80;;;14.70;55.90;15.90;99761.00;;;;5058972;28;20227;-42
2022/12/09 05:22:42;;;;;;;6.03;3.80;;;14.70;55.80;15.90;99767.00;;;;5080791;28;20181;-43
2022/12/09 05:25:09;;;;;;;5.77;3.50;;;14.70;55.90;15.80;99766.00;;;;5075466;28;20174;-42
2022/12/09 05:27:34;;;;;;;3.97;3.37;;;14.70;56.10;15.80;99757.00;;;;5045036;28;20186;-41
2022/12/09 05:30:00;;;;;;;5.13;3.50;;;14.70;56.20;15.80;99759.00;;;;5053909;28;20166;-43
2022/12/09 05:32:29;;;;;;;4.87;3.27;;;14.70;56.20;15.80;99757.00;;;;5066699;28;20173;-43
2022/12/09 05:34:55;;;;;;;4.47;3.10;;;14.70;56.20;15.80;99748.00;;;;5072794;28;20178;-42
2022/12/09 05:37:21;;;;;;;4.67;3.00;;;14.80;56.30;15.90;99757.00;;;;5053088;28;20185;-43
2022/12/09 05:39:46;;;;;;;5.20;2.97;;;15.00;56.20;15.90;99754.00;;;;5041483;28;20174;-41
2022/12/09 05:42:12;;;;;;;6.13;3.27;;;15.10;56.00;16.00;99745.00;;;;5052329;28;20567;-44
2022/12/09 05:44:38;;;;;;;3.77;2.90;;;15.20;55.80;16.00;99736.00;;;;5053802;28;20155;-44
2022/12/09 05:47:04;;;;;;;3.73;2.80;;;15.40;55.60;16.10;99741.00;;;;5052889;28;20530;-43
2022/12/09 05:49:29;;;;;;;3.10;2.60;;;15.50;55.50;16.10;99739.00;;;;5052494;28;20182;-42
2022/12/09 05:51:55;;;;;;;3.33;2.63;;;15.50;55.30;16.20;99740.00;;;;5051750;28;20835;-43
2022/12/09 05:54:21;;;;;;;4.80;3.00;;;15.60;55.30;16.20;99732.00;;;;5034377;28;20174;-42
2022/12/09 05:56:46;;;;;;;3.10;2.80;;;15.60;55.20;16.30;99736.00;;;;5052360;28;20170;-44
2022/12/09 05:59:12;;;;;;;4.27;2.43;;;15.70;55.30;16.30;99737.00;;;;5052037;28;20187;-44
2022/12/09 06:01:38;;;;;;;3.97;2.50;;;15.70;55.30;16.30;99744.00;;;;5051572;28;20206;-43
2022/12/09 06:04:04;;;;;;;2.90;2.60;;;15.70;55.30;16.40;99744.00;;;;5033404;28;20175;-42
2022/12/09 06:06:30;;;;;;;3.73;2.50;;;15.70;55.30;16.40;99737.00;;;;5052039;28;20173;-44
2022/12/09 06:08:58;;;;;;;3.10;2.40;;;15.80;55.40;16.40;99740.00;;;;5050714;28;20190;-42
2022/12/09 06:11:24;;;;;;;3.20;2.40;;;15.70;55.30;16.40;99737.00;;;;5034338;28;20177;-43
2022/12/09 06:13:50;;;;;;;2.40;2.20;;;15.70;55.30;16.40;99731.00;;;;5051651;28;20166;-42
2022/12/09 06:16:18;;;;;;;3.67;2.43;;;15.70;55.50;16.40;99737.00;;;;5051825;28;20171;-43
2022/12/09 06:18:44;;;;;;;2.70;2.50;;;15.60;55.60;16.40;99726.00;;;;5051623;28;20225;-42
2022/12/09 06:21:11;;;;;;;3.20;2.43;;;15.70;55.70;16.50;99731.00;;;;5034142;28;20283;-41
2022/12/09 06:23:39;;;;;;;2.30;2.10;;;15.60;55.70;16.40;99727.00;;;;5061212;28;20177;-43
2022/12/09 06:26:05;;;;;;;2.70;2.40;;;15.70;55.80;16.50;99732.00;;;;5054864;28;20162;-42
2022/12/09 06:28:31;;;;;;;2.83;2.63;;;15.70;55.80;16.50;99723.00;;;;5056839;28;20186;-44
2022/12/09 06:30:57;;;;;;;2.80;2.57;;;15.70;55.80;16.50;99723.00;;;;5053915;28;20814;-44
2022/12/09 06:33:23;;;;;;;2.40;2.20;;;15.70;55.80;16.50;99721.00;;;;5053325;28;20211;-43
2022/12/09 06:35:48;;;;;;;2.37;2.20;;;15.70;55.70;16.50;99725.00;;;;5071445;28;20263;-44
2022/12/09 06:38:14;;;;;;;2.50;2.30;;;15.70;55.80;16.50;99718.00;;;;5071359;28;20189;-44
2022/12/09 06:40:43;;;;;;;4.47;2.60;;;15.70;55.90;16.50;99715.00;;;;5071296;28;20647;-42
2022/12/09 06:43:09;;;;;;;2.60;2.40;;;15.70;55.90;16.50;99721.00;;;;5052757;28;20177;-42
2022/12/09 06:45:36;;;;;;;2.50;2.30;;;15.70;55.80;16.50;99724.00;;;;5071213;28;20197;-43
2022/12/09 06:48:02;;;;;;;2.60;2.40;;;15.70;55.80;16.50;99732.00;;;;5070598;28;20190;-43
2022/12/09 06:50:28;;;;;;;2.37;2.20;;;15.70;55.80;16.50;99723.00;;;;5071288;28;20174;-43
2022/12/09 06:52:54;;;;;;;2.47;2.27;;;15.80;55.90;16.50;99733.00;;;;5070154;28;20174;-43
2022/12/09 06:55:19;;;;;;;2.50;2.30;;;15.70;55.80;16.50;99734.00;;;;5070777;28;20173;-43
2022/12/09 06:57:45;;;;;;;2.40;2.20;;;15.70;55.90;16.50;99735.00;;;;5070711;28;20189;-43
2022/12/09 07:00:12;;;;;;;2.50;2.30;;;15.70;56.00;16.50;99739.00;;;;5070719;28;20169;-44
2022/12/09 07:02:38;;;;;;;2.47;2.27;;;15.70;56.00;16.50;99737.00;;;;5073174;28;20148;-43
2022/12/09 07:05:04;;;;;;;2.57;2.37;;;15.70;56.00;16.50;99739.00;;;;5074807;28;20173;-43
2022/12/09 07:07:30;;;;;;;3.00;2.50;;;15.70;56.00;16.50;99735.00;;;;5071408;28;20368;-43
2022/12/09 07:09:55;;;;;;;2.90;2.60;;;15.80;56.00;16.50;99734.00;;;;5053580;28;20256;-44
2022/12/09 07:12:21;;;;;;;2.50;2.30;;;15.80;56.00;16.50;99743.00;;;;5035901;28;20170;-42
2022/12/09 07:14:47;;;;;;;2.67;2.40;;;15.70;55.90;16.50;99744.00;;;;5071182;28;20176;-43
2022/12/09 07:17:17;;;;;;;2.50;2.30;;;15.70;56.00;16.50;99747.00;;;;5070487;28;20182;-42
2022/12/09 07:19:43;;;;;;;2.73;2.20;;;15.70;56.00;16.50;99753.00;;;;5036333;28;20192;-42
2022/12/09 07:22:09;;;;;;;2.40;2.20;;;15.80;56.00;16.50;99749.00;;;;5070440;28;20284;-49
2022/12/09 07:24:37;;;;;;;2.30;2.10;;;15.80;56.00;16.60;99759.00;;;;5069983;28;20598;-42
2022/12/09 07:27:04;;;;;;;2.20;2.10;;;15.80;56.00;16.60;99753.00;;;;5052659;28;20714;-42
2022/12/09 07:29:31;;;;;;;2.50;2.30;;;15.70;56.00;16.50;99755.00;;;;5070493;28;20196;-43
2022/12/09 07:31:57;;;;;;;2.80;2.37;;;15.70;56.70;16.50;99758.00;;;;5070343;28;20564;-42
2022/12/09 07:34:23;;;;;;;2.40;2.20;;;15.70;56.10;16.50;99760.00;;;;5069596;28;20176;-43
2022/12/09 07:36:48;;;;;;;2.57;2.37;;;15.70;56.20;16.50;99760.00;;;;5070443;28;20181;-43
2022/12/09 07:39:16;;;;;;;2.80;2.60;;;15.70;56.20;16.50;99757.00;;;;5070511;28;20189;-42
2022/12/09 07:41:42;;;;;;;3.27;2.57;;;15.70;56.20;16.50;99748.00;;;;5069494;28;20571;-43
2022/12/09 07:44:09;;;;;;;2.70;2.50;;;15.70;56.10;16.50;99767.00;;;;5051841;28;20158;-42
2022/12/09 07:46:35;;;;;;;2.90;2.70;;;15.70;56.10;16.50;99746.00;;;;5070184;28;20188;-42
2022/12/09 07:49:01;;;;;;;2.80;2.60;;;15.70;56.10;16.50;99766.00;;;;5069791;28;20551;-43
2022/12/09 07:51:28;;;;;;;2.90;2.70;;;15.80;56.20;16.50;99753.00;;;;5069522;28;20180;-42
2022/12/09 07:53:54;;;;;;;3.33;3.03;;;15.70;56.10;16.50;99763.00;;;;5051594;28;20173;-42
2022/12/09 07:56:20;;;;;;;3.20;2.90;;;15.70;56.10;16.50;99769.00;;;;5052155;28;20173;-44
2022/12/09 07:58:51;;;;;;;3.30;2.80;;;15.70;56.10;16.50;99760.00;;;;5069865;28;20283;-43
2022/12/09 08:01:22;;;;;;;2.90;2.60;;;15.70;56.10;16.50;99760.00;;;;5052683;28;20622;-41
2022/12/09 08:03:48;;;;;;;2.80;2.60;;;15.80;56.20;16.50;99764.00;;;;5068994;28;20194;-44
2022/12/09 08:06:19;;;;;;;3.37;3.07;;;15.80;56.10;16.50;99762.00;;;;5069850;28;20169;-44
2022/12/09 08:08:45;;;;;;;3.20;2.90;;;15.80;56.10;16.50;99765.00;;;;5069668;28;20190;-43
2022/12/09 08:11:16;;;;;;;3.17;2.87;;;15.70;56.00;16.50;99767.00;;;;5069406;28;20165;-42
2022/12/09 08:13:42;;;;;;;3.00;2.80;;;15.70;56.10;16.50;99770.00;;;;5069461;28;20181;-43
2022/12/09 08:16:09;;;;;;;3.30;3.00;;;15.80;56.20;16.50;99772.00;;;;5069558;28;20170;-41
2022/12/09 08:18:35;;;;;;;2.93;2.70;;;15.70;56.20;16.50;99773.00;;;;5063920;28;20673;-43
2022/12/09 08:21:18;;;;;;;3.63;3.03;;;15.70;56.20;16.50;99771.00;;;;5059677;28;20212;-44
2022/12/09 08:23:44;;;;;;;3.30;3.00;;;15.70;56.20;16.50;99772.00;;;;5059769;28;20166;-43
2022/12/09 08:26:11;;;;;;;3.70;3.40;;;15.70;56.20;16.50;99770.00;;;;5032165;28;20162;-42
2022/12/09 08:28:37;;;;;;;3.13;2.90;;;15.70;56.30;16.50;99778.00;;;;5033854;28;20211;-43
2022/12/09 08:31:14;;;;;;;2.97;2.77;;;15.70;56.20;16.50;99779.00;;;;5059901;28;20192;-42
2022/12/09 08:33:40;;;;;;;2.97;2.77;;;15.70;56.10;16.50;99773.00;;;;5059425;28;21464;-43
2022/12/09 08:36:15;;;;;;;3.17;2.90;;;15.80;56.20;16.50;99777.00;;;;5054691;28;20170;-43
2022/12/09 08:38:41;;;;;;;12.97;3.43;;;15.80;56.20;16.60;99773.00;;;;5049519;28;20201;-43
2022/12/09 08:41:14;;;;;;;4.00;2.90;;;15.90;56.60;16.60;99766.00;;;;5049231;28;20201;-43
2022/12/09 08:43:40;;;;;;;5.10;3.40;;;15.90;56.50;16.60;99765.00;;;;5030519;28;20175;-49
2022/12/09 08:46:06;;;;;;;5.97;3.87;;;15.80;56.40;16.60;99762.00;;;;5059722;28;20268;-42
2022/12/09 08:48:36;;;;;;;5.33;4.17;;;15.80;56.40;16.50;99761.00;;;;5033550;28;20193;-43
2022/12/09 08:51:02;;;;;;;5.70;4.13;;;15.80;56.40;16.50;99768.00;;;;5049779;28;20155;-44
2022/12/09 08:53:28;;;;;;;8.40;4.60;;;15.80;56.30;16.50;99763.00;;;;5049884;28;20175;-44
2022/12/09 08:55:54;;;;;;;5.50;4.47;;;15.80;56.20;16.50;99762.00;;;;5050789;28;20161;-42
2022/12/09 08:58:20;;;;;;;6.57;5.10;;;15.70;55.90;16.50;99759.00;;;;5049919;28;20186;-42
2022/12/09 09:00:45;;;;;;;7.90;5.33;;;15.70;55.80;16.50;99763.00;;;;5049535;28;20194;-43
2022/12/09 09:03:11;;;;;;;5.60;5.10;;;15.80;55.80;16.50;99766.00;;;;5048736;28;20258;-43
2022/12/09 09:05:37;;;;;;;7.00;4.90;;;15.80;55.70;16.50;99766.00;;;;5031431;28;20178;-42
2022/12/09 09:08:03;;;;;;;5.30;4.80;;;15.80;55.70;16.50;99779.00;;;;5031318;28;20194;-43
2022/12/09 09:10:29;;;;;;;5.47;4.97;;;15.70;55.70;16.50;99765.00;;;;5049908;28;20588;-43
2022/12/09 09:12:55;;;;;;;5.70;5.03;;;15.70;55.60;16.50;99768.00;;;;5047498;28;20230;-43
2022/12/09 09:15:21;;;;;;;5.63;5.17;;;15.70;55.30;16.50;99776.00;;;;5031383;28;20165;-43
2022/12/09 09:17:47;;;;;;;5.73;5.13;;;15.70;55.50;16.50;99773.00;;;;5047618;28;20214;-43
2022/12/09 09:20:12;;;;;;;5.83;5.23;;;15.70;55.30;16.50;99777.00;;;;5049135;28;20285;-43
2022/12/09 09:22:38;;;;;;;7.27;5.27;;;15.70;55.30;16.50;99776.00;;;;5049192;28;20159;-44
2022/12/09 09:25:05;;;;;;;6.53;5.60;;;15.80;55.20;16.50;99789.00;;;;5048043;28;20607;-42
2022/12/09 09:27:31;;;;;;;6.10;5.50;;;15.80;55.00;16.60;99793.00;;;;5053914;28;20253;-42
2022/12/09 09:29:56;;;;;;;7.90;5.50;;;15.80;54.90;16.60;99790.00;;;;5048383;28;20261;-43
2022/12/09 09:32:22;;;;;;;5.93;5.43;;;15.80;54.90;16.60;99792.00;;;;5047595;28;20162;-43
2022/12/09 09:34:49;;;;;;;5.97;5.37;;;15.80;54.90;16.60;99789.00;;;;5048928;28;20713;-42
2022/12/09 09:37:15;;;;;;;7.57;5.77;;;15.80;54.90;16.50;99785.00;;;;5049250;28;20183;-43
2022/12/09 09:39:41;;;;;;;6.53;5.50;;;15.80;54.80;16.50;99787.00;;;;5031388;28;20248;-43
2022/12/09 09:42:25;;;;;;;6.07;5.33;;;15.80;54.70;16.60;99790.00;;;;5036183;28;20240;-42
2022/12/09 09:44:52;;;;;;;5.10;4.60;;;15.90;54.90;16.60;99775.00;;;;5043913;28;20253;-42
2022/12/09 09:47:40;;;;;;;6.27;5.10;;;15.90;55.00;16.60;99783.00;;;;5056325;28;20749;-42
2022/12/09 09:50:26;;;;;;;5.87;4.87;;;15.90;55.10;16.60;99781.00;;;;5055515;28;20533;-43
2022/12/09 09:52:52;;;;;;;13.90;4.83;;;15.90;55.30;16.60;99782.00;;;;5053943;28;20211;-43
2022/12/09 09:55:21;;;;;;;9.83;4.50;;;15.90;55.50;16.60;99774.00;;;;5054439;28;20768;-43
2022/12/09 09:57:55;;;;;;;10.33;4.33;;;15.80;56.10;16.60;99776.00;;;;5048121;28;20208;-43
2022/12/09 10:00:50;;;;;;;9.10;5.00;;;15.80;56.50;16.60;99768.00;;;;5043779;28;20167;-42
2022/12/09 10:03:27;;;;;;;9.00;4.57;;;15.80;56.60;16.60;99774.00;;;;5043851;28;20178;-43
2022/12/09 10:05:54;;;;;;;5.67;3.97;;;15.80;56.80;16.60;99777.00;;;;5060541;28;20150;-44
2022/12/09 10:08:57;;;;;;;6.63;4.20;;;15.80;56.80;16.60;99777.00;;;;5044842;28;20189;-44
2022/12/09 10:11:30;;;;;;;5.23;4.00;;;15.90;56.60;16.60;99771.00;;;;5036968;28;20538;-46
2022/12/09 10:14:33;;;;;;;8.23;4.07;;;15.90;56.40;16.60;99757.00;;;;5034224;28;20820;-44
2022/12/09 10:17:07;;;;;;;6.07;4.47;;;15.90;56.60;16.60;99767.00;;;;5019502;28;20637;-42
2022/12/09 10:19:40;;;;;;;7.23;4.67;;;15.90;56.30;16.60;99765.00;;;;5052109;28;20189;-44
2022/12/09 10:22:21;;;;;;;7.30;4.50;;;15.80;56.00;16.60;99767.00;;;;5036236;28;20197;-44
2022/12/09 10:24:53;;;;;;;6.00;4.60;;;15.90;55.90;16.60;99763.00;;;;5061525;28;20245;-43
2022/12/09 10:27:44;;;;;;;5.90;4.47;;;15.80;55.70;16.60;99765.00;;;;5028888;28;20231;-44
2022/12/09 10:30:12;;;;;;;5.43;4.40;;;15.80;55.70;16.60;99761.00;;;;5033151;28;20166;-42
2022/12/09 10:32:38;;;;;;;4.87;4.43;;;15.80;55.50;16.60;99754.00;;;;5049153;28;20198;-43
2022/12/09 10:35:20;;;;;;;4.80;4.30;;;15.80;55.40;16.60;99755.00;;;;5050653;28;20162;-44
2022/12/09 10:37:47;;;;;;;4.73;4.17;;;15.90;55.50;16.60;99744.00;;;;5050746;28;20678;-43
2022/12/09 10:40:27;;;;;;;5.10;3.87;;;15.90;55.50;16.60;99746.00;;;;5052187;28;20151;-42
2022/12/09 10:45:47;;;;;;;5.60;4.97;;;16.00;55.90;16.60;99746.00;;;;5036233;28;20164;-42
2022/12/09 10:48:41;;;;;;;9.40;5.80;;;16.00;56.60;16.70;99744.00;;;;5002069;28;20185;-43
2022/12/09 10:51:19;;;;;;;9.53;6.10;;;16.00;57.10;16.70;99740.00;;;;5036126;28;20658;-44
2022/12/09 10:53:59;;;;;;;11.17;6.30;;;16.00;57.70;16.70;99736.00;;;;5033043;28;20162;-44
2022/12/09 10:56:27;;;;;;;7.93;6.63;;;16.00;57.90;16.70;99747.00;;;;5018820;28;20167;-44
2022/12/09 10:59:22;;;;;;;9.37;6.87;;;16.00;58.10;16.70;99743.00;;;;5049997;28;20234;-44
2022/12/09 11:01:50;;;;;;;10.80;6.40;;;16.00;57.90;16.70;99733.00;;;;5032337;28;20629;-43
2022/12/09 11:04:26;;;;;;;10.50;6.77;;;16.00;57.80;16.70;99732.00;;;;5050691;28;20182;-42
2022/12/09 11:06:55;;;;;;;6.90;6.13;;;16.00;57.80;16.70;99727.00;;;;5032109;28;20154;-41
2022/12/09 11:09:56;;;;;;;8.67;6.00;;;16.00;57.90;16.70;99728.00;;;;5015651;28;20189;-43